Time,TemperatureF,DewpointF,PressureIn,WindDirection,WindDirectionDegrees,WindSpeedMPH,WindSpeedGustMPH,Humidity,HourlyPrecipIn,Conditions,Clouds,dailyrainin,SoftwareType,DateUTC
2013-06-27 00:04:00,74.1,73.2,29.75,SE,141,0.0,0.0,97,0.00,,,0.00,Wunderground v.1.15,2013-06-27 05:04:00,
2013-06-27 00:09:00,74.2,73.3,29.75,SE,141,0.0,0.0,97,0.00,,,0.00,Wunderground v.1.15,2013-06-27 05:09:00,
2013-06-27 00:15:00,74.2,73.3,29.74,South,174,0.0,0.0,97,0.00,,,0.00,Wunderground v.1.15,2013-06-27 05:15:00,
2013-06-27 00:20:00,74.2,73.3,29.74,South,174,0.0,0.0,97,0.00,,,0.00,Wunderground v.1.15,2013-06-27 05:20:00,
2013-06-27 00:25:00,74.2,73.3,29.74,South,174,0.0,0.0,97,0.00,,,0.00,Wunderground v.1.15,2013-06-27 05:25:00,
2013-06-27 00:30:00,74.1,73.2,29.74,South,174,0.0,0.0,97,0.00,,,0.00,Wunderground v.1.15,2013-06-27 05:30:00,
2013-06-27 00:36:00,74.0,73.1,29.74,South,174,0.0,0.0,97,0.00,,,0.00,Wunderground v.1.15,2013-06-27 05:36:00,
2013-06-27 00:41:00,73.9,73.0,29.74,South,174,0.0,0.0,97,0.00,,,0.00,Wunderground v.1.15,2013-06-27 05:41:00,
2013-06-27 00:46:00,74.0,73.1,29.74,SW,221,0.0,0.0,97,0.00,,,0.00,Wunderground v.1.15,2013-06-27 05:46:00,
2013-06-27 00:52:00,74.0,73.1,29.75,SW,226,0.0,0.0,97,0.00,,,0.00,Wunderground v.1.15,2013-06-27 05:52:00,
2013-06-27 00:57:00,74.0,73.1,29.75,SSW,203,0.0,0.0,97,0.00,,,0.00,Wunderground v.1.15,2013-06-27 05:57:00,
2013-06-27 01:03:00,74.1,73.2,29.75,West,276,0.0,0.0,97,0.00,,,0.00,Wunderground v.1.15,2013-06-27 06:03:00,
2013-06-27 01:08:00,74.1,73.2,29.75,West,277,0.0,0.0,97,0.00,,,0.00,Wunderground v.1.15,2013-06-27 06:08:00,
2013-06-27 01:13:00,74.1,73.2,29.76,West,273,0.0,0.0,97,0.00,,,0.00,Wunderground v.1.15,2013-06-27 06:13:00,
2013-06-27 01:19:00,74.1,73.2,29.76,West,266,0.0,1.0,97,0.00,,,0.00,Wunderground v.1.15,2013-06-27 06:19:00,
2013-06-27 01:24:00,74.0,73.1,29.76,West,266,0.0,0.0,97,0.00,,,0.00,Wunderground v.1.15,2013-06-27 06:24:00,
2013-06-27 01:29:00,73.9,73.0,29.75,SW,214,0.0,0.0,97,0.00,,,0.00,Wunderground v.1.15,2013-06-27 06:29:00,
2013-06-27 01:35:00,73.9,73.0,29.75,SSW,212,0.0,0.0,97,0.00,,,0.00,Wunderground v.1.15,2013-06-27 06:35:00,
2013-06-27 01:40:00,73.9,73.0,29.75,SSW,213,0.0,0.0,97,0.00,,,0.00,Wunderground v.1.15,2013-06-27 06:40:00,
2013-06-27 01:45:00,73.8,72.9,29.76,SSW,213,0.0,0.0,97,0.00,,,0.00,Wunderground v.1.15,2013-06-27 06:45:00,
2013-06-27 01:50:00,73.7,72.8,29.76,SSW,213,0.0,0.0,97,0.00,,,0.00,Wunderground v.1.15,2013-06-27 06:50:00,
2013-06-27 01:56:00,73.7,72.8,29.76,SE,139,0.0,0.0,97,0.00,,,0.00,Wunderground v.1.15,2013-06-27 06:56:00,
2013-06-27 02:01:00,73.7,72.8,29.76,SE,139,0.0,0.0,97,0.00,,,0.00,Wunderground v.1.15,2013-06-27 07:01:00,
2013-06-27 02:07:00,73.7,72.8,29.77,SE,139,0.0,0.0,97,0.00,,,0.00,Wunderground v.1.15,2013-06-27 07:07:00,
2013-06-27 02:12:00,73.7,72.8,29.77,SW,229,0.0,0.0,97,0.00,,,0.00,Wunderground v.1.15,2013-06-27 07:12:00,
2013-06-27 02:17:00,73.6,72.7,29.76,SW,229,0.0,0.0,97,0.00,,,0.00,Wunderground v.1.15,2013-06-27 07:17:00,
2013-06-27 02:23:00,73.6,72.7,29.77,South,181,0.0,0.0,97,0.00,,,0.00,Wunderground v.1.15,2013-06-27 07:23:00,
2013-06-27 02:28:00,73.7,72.8,29.77,SSE,152,0.0,0.0,97,0.00,,,0.00,Wunderground v.1.15,2013-06-27 07:28:00,
2013-06-27 02:33:00,73.7,72.8,29.77,West,260,0.0,0.0,97,0.00,,,0.00,Wunderground v.1.15,2013-06-27 07:33:00,
2013-06-27 02:38:00,73.8,72.9,29.77,WSW,253,0.0,0.0,97,0.00,,,0.00,Wunderground v.1.15,2013-06-27 07:38:00,
2013-06-27 02:44:00,74.0,73.4,29.77,West,276,1.0,2.0,98,0.00,,,0.00,Wunderground v.1.15,2013-06-27 07:44:00,
2013-06-27 02:49:00,74.1,73.5,29.77,WSW,246,1.0,2.0,98,0.00,,,0.00,Wunderground v.1.15,2013-06-27 07:49:00,
2013-06-27 02:54:00,74.1,73.5,29.77,WSW,240,1.0,1.0,98,0.00,,,0.00,Wunderground v.1.15,2013-06-27 07:54:00,
2013-06-27 03:00:00,74.1,73.2,29.77,West,274,0.0,0.0,97,0.00,,,0.00,Wunderground v.1.15,2013-06-27 08:00:00,
2013-06-27 03:06:00,74.1,73.2,29.77,West,277,0.0,0.0,97,0.00,,,0.00,Wunderground v.1.15,2013-06-27 08:06:00,
2013-06-27 03:12:00,74.1,73.2,29.76,West,259,0.0,2.0,97,0.00,,,0.00,Wunderground v.1.15,2013-06-27 08:12:00,
2013-06-27 03:17:00,74.0,73.1,29.76,WSW,249,1.0,2.0,97,0.00,,,0.00,Wunderground v.1.15,2013-06-27 08:17:00,
2013-06-27 03:19:00,74.0,73.1,29.76,West,276,1.0,2.0,97,0.00,,,0.00,Wunderground v.1.15,2013-06-27 08:19:00,
2013-06-27 03:24:00,74.0,73.1,29.76,West,281,1.0,1.0,97,0.00,,,0.00,Wunderground v.1.15,2013-06-27 08:24:00,
2013-06-27 03:29:00,74.0,73.1,29.76,West,270,1.0,2.0,97,0.00,,,0.00,Wunderground v.1.15,2013-06-27 08:29:00,
2013-06-27 03:34:00,74.0,73.1,29.76,West,266,1.0,2.0,97,0.00,,,0.00,Wunderground v.1.15,2013-06-27 08:34:00,
2013-06-27 03:39:00,74.0,73.1,29.76,WNW,287,1.0,2.0,97,0.00,,,0.00,Wunderground v.1.15,2013-06-27 08:39:00,
2013-06-27 03:45:00,73.9,73.0,29.76,West,273,1.0,1.0,97,0.00,,,0.00,Wunderground v.1.15,2013-06-27 08:45:00,
2013-06-27 03:50:00,73.7,72.8,29.77,West,276,0.0,1.0,97,0.00,,,0.00,Wunderground v.1.15,2013-06-27 08:50:00,
2013-06-27 03:55:00,73.6,72.7,29.77,WSW,246,0.0,1.0,97,0.00,,,0.00,Wunderground v.1.15,2013-06-27 08:55:00,
2013-06-27 04:00:00,73.6,72.7,29.77,WSW,243,0.0,0.0,97,0.00,,,0.00,Wunderground v.1.15,2013-06-27 09:00:00,
2013-06-27 04:06:00,73.5,72.6,29.77,WSW,243,0.0,0.0,97,0.00,,,0.00,Wunderground v.1.15,2013-06-27 09:06:00,
2013-06-27 04:11:00,73.4,72.5,29.76,WSW,243,0.0,0.0,97,0.00,,,0.00,Wunderground v.1.15,2013-06-27 09:11:00,
2013-06-27 04:17:00,73.2,72.3,29.76,WSW,244,0.0,0.0,97,0.00,,,0.00,Wunderground v.1.15,2013-06-27 09:17:00,
2013-06-27 04:22:00,73.0,72.1,29.76,WSW,243,0.0,0.0,97,0.00,,,0.00,Wunderground v.1.15,2013-06-27 09:22:00,
2013-06-27 04:27:00,73.0,72.1,29.76,WSW,243,0.0,0.0,97,0.00,,,0.00,Wunderground v.1.15,2013-06-27 09:27:00,
2013-06-27 04:33:00,72.9,72.0,29.76,SW,219,0.0,0.0,97,0.00,,,0.00,Wunderground v.1.15,2013-06-27 09:33:00,
2013-06-27 04:38:00,72.9,72.0,29.76,SW,219,0.0,0.0,97,0.00,,,0.00,Wunderground v.1.15,2013-06-27 09:38:00,
2013-06-27 04:43:00,72.9,72.0,29.76,SW,219,0.0,0.0,97,0.00,,,0.00,Wunderground v.1.15,2013-06-27 09:43:00,
2013-06-27 04:49:00,72.8,71.9,29.76,SW,219,0.0,0.0,97,0.00,,,0.00,Wunderground v.1.15,2013-06-27 09:49:00,
2013-06-27 04:54:00,72.7,71.8,29.77,SW,219,0.0,0.0,97,0.00,,,0.00,Wunderground v.1.15,2013-06-27 09:54:00,
2013-06-27 04:59:00,72.7,71.8,29.77,SW,219,0.0,0.0,97,0.00,,,0.00,Wunderground v.1.15,2013-06-27 09:59:00,
2013-06-27 05:05:00,72.7,72.1,29.77,SW,219,0.0,0.0,98,0.00,,,0.00,Wunderground v.1.15,2013-06-27 10:05:00,
2013-06-27 05:11:00,72.6,72.0,29.77,SW,219,0.0,0.0,98,0.00,,,0.00,Wunderground v.1.15,2013-06-27 10:11:00,
2013-06-27 05:16:00,72.6,72.0,29.76,SW,219,0.0,0.0,98,0.00,,,0.00,Wunderground v.1.15,2013-06-27 10:16:00,
2013-06-27 05:21:00,72.5,71.6,29.76,SW,219,0.0,0.0,97,0.00,,,0.00,Wunderground v.1.15,2013-06-27 10:21:00,
2013-06-27 05:26:00,72.4,71.5,29.76,SW,219,0.0,0.0,97,0.00,,,0.00,Wunderground v.1.15,2013-06-27 10:26:00,
2013-06-27 05:32:00,72.4,71.5,29.76,SW,221,0.0,0.0,97,0.00,,,0.00,Wunderground v.1.15,2013-06-27 10:32:00,
2013-06-27 05:37:00,72.4,71.8,29.76,SW,219,0.0,0.0,98,0.00,,,0.00,Wunderground v.1.15,2013-06-27 10:37:00,
2013-06-27 05:42:00,72.4,71.8,29.76,WNW,288,0.0,1.0,98,0.00,,,0.00,Wunderground v.1.15,2013-06-27 10:42:00,
2013-06-27 05:47:00,72.5,71.9,29.77,West,281,0.0,1.0,98,0.00,,,0.00,Wunderground v.1.15,2013-06-27 10:47:00,
2013-06-27 05:52:00,72.8,72.2,29.76,WNW,288,1.0,2.0,98,0.00,,,0.00,Wunderground v.1.15,2013-06-27 10:52:00,
2013-06-27 05:58:00,72.9,72.3,29.76,WNW,288,1.0,3.0,98,0.00,,,0.00,Wunderground v.1.15,2013-06-27 10:58:00,
2013-06-27 06:04:00,73.1,72.5,29.77,West,274,2.0,3.0,98,0.00,,,0.00,Wunderground v.1.15,2013-06-27 11:04:00,
2013-06-27 06:09:00,73.2,72.6,29.77,West,276,2.0,3.0,98,0.00,,,0.00,Wunderground v.1.15,2013-06-27 11:09:00,
2013-06-27 06:14:00,73.3,72.7,29.77,WNW,293,2.0,3.0,98,0.00,,,0.00,Wunderground v.1.15,2013-06-27 11:14:00,
2013-06-27 06:19:00,73.3,72.4,29.77,WNW,288,2.0,3.0,97,0.00,,,0.00,Wunderground v.1.15,2013-06-27 11:19:00,
2013-06-27 06:25:00,73.4,72.5,29.77,West,281,3.0,3.0,97,0.00,,,0.00,Wunderground v.1.15,2013-06-27 11:25:00,
2013-06-27 06:30:00,73.6,72.7,29.77,West,278,3.0,3.0,97,0.00,,,0.00,Wunderground v.1.15,2013-06-27 11:30:00,
2013-06-27 06:35:00,73.6,72.7,29.77,West,274,3.0,3.0,97,0.00,,,0.00,Wunderground v.1.15,2013-06-27 11:35:00,
2013-06-27 06:41:00,73.8,72.9,29.77,WNW,284,3.0,3.0,97,0.00,,,0.00,Wunderground v.1.15,2013-06-27 11:41:00,
2013-06-27 06:46:00,74.1,73.2,29.77,West,272,2.0,3.0,97,0.00,,,0.00,Wunderground v.1.15,2013-06-27 11:46:00,
2013-06-27 06:51:00,74.3,73.4,29.77,West,280,2.0,4.0,97,0.00,,,0.00,Wunderground v.1.15,2013-06-27 11:51:00,
2013-06-27 06:57:00,74.5,73.6,29.78,West,280,2.0,4.0,97,0.00,,,0.00,Wunderground v.1.15,2013-06-27 11:57:00,
2013-06-27 07:02:00,74.6,73.7,29.78,WSW,257,2.0,2.0,97,0.00,,,0.00,Wunderground v.1.15,2013-06-27 12:02:00,
2013-06-27 07:08:00,74.7,73.8,29.78,West,280,1.0,2.0,97,0.00,,,0.00,Wunderground v.1.15,2013-06-27 12:08:00,
2013-06-27 07:13:00,75.1,74.2,29.78,WSW,255,1.0,1.0,97,0.00,,,0.00,Wunderground v.1.15,2013-06-27 12:13:00,
2013-06-27 07:18:00,75.4,74.5,29.78,WNW,285,1.0,2.0,97,0.00,,,0.00,Wunderground v.1.15,2013-06-27 12:18:00,
2013-06-27 07:23:00,75.6,74.7,29.78,WNW,293,2.0,2.0,97,0.00,,,0.00,Wunderground v.1.15,2013-06-27 12:23:00,
2013-06-27 07:29:00,76.1,75.2,29.78,West,280,2.0,2.0,97,0.00,,,0.00,Wunderground v.1.15,2013-06-27 12:29:00,
2013-06-27 07:34:00,76.4,75.5,29.78,West,271,2.0,3.0,97,0.00,,,0.00,Wunderground v.1.15,2013-06-27 12:34:00,
2013-06-27 07:39:00,76.9,75.7,29.78,WNW,288,1.0,3.0,96,0.00,,,0.00,Wunderground v.1.15,2013-06-27 12:39:00,
2013-06-27 07:44:00,77.3,76.1,29.78,WNW,295,1.0,2.0,96,0.00,,,0.00,Wunderground v.1.15,2013-06-27 12:44:00,
2013-06-27 07:49:00,77.6,76.4,29.78,WNW,289,2.0,4.0,96,0.00,,,0.00,Wunderground v.1.15,2013-06-27 12:49:00,
2013-06-27 07:55:00,78.0,76.5,29.78,WNW,284,2.0,3.0,95,0.00,,,0.00,Wunderground v.1.15,2013-06-27 12:55:00,
2013-06-27 08:00:00,78.2,76.3,29.78,WNW,298,3.0,3.0,94,0.00,,,0.00,Wunderground v.1.15,2013-06-27 13:00:00,
2013-06-27 08:06:00,78.5,76.6,29.79,WSW,252,4.0,6.0,94,0.00,,,0.00,Wunderground v.1.15,2013-06-27 13:06:00,
2013-06-27 08:11:00,78.9,77.0,29.79,WNW,287,4.0,4.0,94,0.00,,,0.00,Wunderground v.1.15,2013-06-27 13:11:00,
2013-06-27 08:16:00,79.1,77.2,29.79,NW,310,4.0,4.0,94,0.00,,,0.00,Wunderground v.1.15,2013-06-27 13:16:00,
2013-06-27 08:22:00,79.4,77.2,29.79,WNW,302,4.0,5.0,93,0.00,,,0.00,Wunderground v.1.15,2013-06-27 13:22:00,
2013-06-27 08:27:00,79.7,77.5,29.78,West,281,4.0,5.0,93,0.00,,,0.00,Wunderground v.1.15,2013-06-27 13:27:00,
2013-06-27 08:32:00,79.9,77.7,29.78,WNW,302,4.0,6.0,93,0.00,,,0.00,Wunderground v.1.15,2013-06-27 13:32:00,
2013-06-27 08:37:00,80.3,77.8,29.78,WNW,302,4.0,6.0,92,0.00,,,0.00,Wunderground v.1.15,2013-06-27 13:37:00,
2013-06-27 08:43:00,80.6,77.7,29.78,WSW,246,4.0,5.0,91,0.00,,,0.00,Wunderground v.1.15,2013-06-27 13:43:00,
2013-06-27 08:48:00,81.1,78.2,29.79,WNW,300,4.0,5.0,91,0.00,,,0.00,Wunderground v.1.15,2013-06-27 13:48:00,
2013-06-27 08:53:00,81.2,78.7,29.79,NW,304,4.0,6.0,92,0.00,,,0.00,Wunderground v.1.15,2013-06-27 13:53:00,
2013-06-27 08:59:00,81.5,78.6,29.79,NW,308,5.0,6.0,91,0.00,,,0.00,Wunderground v.1.15,2013-06-27 13:59:00,
2013-06-27 09:05:00,81.7,78.5,29.79,WNW,295,5.0,9.0,90,0.00,,,0.00,Wunderground v.1.15,2013-06-27 14:05:00,
2013-06-27 09:10:00,82.1,79.2,29.79,WNW,295,5.0,5.0,91,0.00,,,0.00,Wunderground v.1.15,2013-06-27 14:10:00,
2013-06-27 09:15:00,82.4,78.8,29.78,West,279,4.0,9.0,89,0.00,,,0.00,Wunderground v.1.15,2013-06-27 14:15:00,
2013-06-27 09:20:00,82.5,78.9,29.78,WNW,294,5.0,6.0,89,0.00,,,0.00,Wunderground v.1.15,2013-06-27 14:20:00,
2013-06-27 09:26:00,83.0,79.4,29.78,NW,316,5.0,6.0,89,0.00,,,0.00,Wunderground v.1.15,2013-06-27 14:26:00,
2013-06-27 09:31:00,83.1,79.2,29.78,NNW,335,6.0,6.0,88,0.00,,,0.00,Wunderground v.1.15,2013-06-27 14:31:00,
2013-06-27 09:36:00,83.4,79.1,29.78,WNW,287,6.0,9.0,87,0.00,,,0.00,Wunderground v.1.15,2013-06-27 14:36:00,
2013-06-27 09:41:00,83.7,79.8,29.79,NNW,339,7.0,7.0,88,0.00,,,0.00,Wunderground v.1.15,2013-06-27 14:41:00,
2013-06-27 09:47:00,84.3,79.3,29.78,NW,304,6.0,7.0,85,0.00,,,0.00,Wunderground v.1.15,2013-06-27 14:47:00,
2013-06-27 09:52:00,84.7,80.4,29.79,NW,311,5.0,6.0,87,0.00,,,0.00,Wunderground v.1.15,2013-06-27 14:52:00,
2013-06-27 09:57:00,85.0,79.3,29.78,NW,306,5.0,6.0,83,0.00,,,0.00,Wunderground v.1.15,2013-06-27 14:57:00,
2013-06-27 10:03:00,85.2,78.7,29.79,WNW,295,6.0,9.0,81,0.00,,,0.00,Wunderground v.1.15,2013-06-27 15:03:00,
2013-06-27 10:08:00,85.5,78.6,29.79,WNW,298,7.0,9.0,80,0.00,,,0.00,Wunderground v.1.15,2013-06-27 15:08:00,
2013-06-27 10:13:00,85.6,78.3,29.79,WNW,299,7.0,10.0,79,0.00,,,0.00,Wunderground v.1.15,2013-06-27 15:13:00,
2013-06-27 10:18:00,85.7,78.0,29.79,WNW,291,7.0,10.0,78,0.00,,,0.00,Wunderground v.1.15,2013-06-27 15:18:00,
2013-06-27 10:23:00,85.7,78.0,29.79,WNW,294,7.0,10.0,78,0.00,,,0.00,Wunderground v.1.15,2013-06-27 15:23:00,
2013-06-27 10:29:00,86.0,78.7,29.79,WNW,293,7.0,10.0,79,0.00,,,0.00,Wunderground v.1.15,2013-06-27 15:29:00,
2013-06-27 10:34:00,86.1,77.2,29.79,NW,309,7.0,10.0,75,0.00,,,0.00,Wunderground v.1.15,2013-06-27 15:34:00,
2013-06-27 10:39:00,86.1,75.6,29.79,WNW,300,7.0,10.0,71,0.00,,,0.00,Wunderground v.1.15,2013-06-27 15:39:00,
2013-06-27 10:44:00,86.1,76.0,29.79,NW,312,9.0,15.0,72,0.00,,,0.00,Wunderground v.1.15,2013-06-27 15:44:00,
2013-06-27 10:50:00,86.3,74.0,29.79,WNW,301,8.0,9.0,67,0.00,,,0.00,Wunderground v.1.15,2013-06-27 15:50:00,
2013-06-27 10:55:00,86.3,74.0,29.79,NW,304,9.0,10.0,67,0.00,,,0.00,Wunderground v.1.15,2013-06-27 15:55:00,
2013-06-27 11:00:00,86.4,73.7,29.79,WNW,301,9.0,9.0,66,0.00,,,0.00,Wunderground v.1.15,2013-06-27 16:00:00,
2013-06-27 11:06:00,86.4,74.1,29.80,NW,310,9.0,11.0,67,0.00,,,0.00,Wunderground v.1.15,2013-06-27 16:06:00,
2013-06-27 11:12:00,86.6,75.2,29.80,NW,326,9.0,10.0,69,0.00,,,0.00,Wunderground v.1.15,2013-06-27 16:12:00,
2013-06-27 11:17:00,86.6,76.5,29.79,NW,314,9.0,10.0,72,0.00,,,0.00,Wunderground v.1.15,2013-06-27 16:17:00,
2013-06-27 11:22:00,86.7,75.3,29.79,NW,311,8.0,12.0,69,0.00,,,0.00,Wunderground v.1.15,2013-06-27 16:22:00,
2013-06-27 11:27:00,86.8,75.0,29.79,North,7,8.0,12.0,68,0.00,,,0.00,Wunderground v.1.15,2013-06-27 16:27:00,
2013-06-27 11:33:00,86.8,75.8,29.80,NNE,27,9.0,13.0,70,0.00,,,0.00,Wunderground v.1.15,2013-06-27 16:33:00,
2013-06-27 11:38:00,87.0,76.0,29.80,NW,315,9.0,15.0,70,0.00,,,0.00,Wunderground v.1.15,2013-06-27 16:38:00,
2013-06-27 11:43:00,87.1,75.3,29.80,NW,325,9.0,11.0,68,0.00,,,0.00,Wunderground v.1.15,2013-06-27 16:43:00,
2013-06-27 11:49:00,87.3,75.0,29.80,NW,322,8.0,11.0,67,0.00,,,0.00,Wunderground v.1.15,2013-06-27 16:49:00,
2013-06-27 11:55:00,87.4,77.3,29.80,NNW,335,8.0,11.0,72,0.00,,,0.00,Wunderground v.1.15,2013-06-27 16:55:00,
2013-06-27 12:00:00,87.6,74.8,29.80,NW,315,8.0,13.0,66,0.00,,,0.00,Wunderground v.1.15,2013-06-27 17:00:00,
2013-06-27 12:06:00,87.6,76.2,29.81,NNW,341,8.0,13.0,69,0.00,,,0.00,Wunderground v.1.15,2013-06-27 17:06:00,
2013-06-27 12:11:00,87.6,77.5,29.80,NW,316,9.0,9.0,72,0.00,,,0.00,Wunderground v.1.15,2013-06-27 17:11:00,
2013-06-27 12:16:00,87.6,75.3,29.81,NW,310,8.0,12.0,67,0.00,,,0.00,Wunderground v.1.15,2013-06-27 17:16:00,
2013-06-27 12:21:00,87.9,76.5,29.81,NNW,333,8.0,8.0,69,0.00,,,0.00,Wunderground v.1.15,2013-06-27 17:21:00,
2013-06-27 12:27:00,88.1,75.8,29.81,NNW,346,8.0,11.0,67,0.00,,,0.00,Wunderground v.1.15,2013-06-27 17:27:00,
2013-06-27 12:32:00,88.3,76.4,29.81,NW,326,8.0,8.0,68,0.00,,,0.00,Wunderground v.1.15,2013-06-27 17:32:00,
2013-06-27 12:37:00,88.1,75.8,29.81,NNW,335,8.0,11.0,67,0.00,,,0.00,Wunderground v.1.15,2013-06-27 17:37:00,
2013-06-27 12:42:00,88.2,77.6,29.81,NW,305,8.0,9.0,71,0.00,,,0.00,Wunderground v.1.15,2013-06-27 17:42:00,
2013-06-27 12:47:00,88.1,76.2,29.81,NW,321,8.0,12.0,68,0.00,,,0.00,Wunderground v.1.15,2013-06-27 17:47:00,
2013-06-27 12:53:00,88.3,76.8,29.81,NNW,333,8.0,8.0,69,0.00,,,0.00,Wunderground v.1.15,2013-06-27 17:53:00,
2013-06-27 12:58:00,88.4,75.1,29.81,NW,315,7.0,11.0,65,0.00,,,0.00,Wunderground v.1.15,2013-06-27 17:58:00,
2013-06-27 13:04:00,88.4,76.9,29.81,NW,325,8.0,11.0,69,0.00,,,0.00,Wunderground v.1.15,2013-06-27 18:04:00,
2013-06-27 13:10:00,88.6,78.0,29.81,NNW,335,8.0,8.0,71,0.00,,,0.00,Wunderground v.1.15,2013-06-27 18:10:00,
2013-06-27 13:15:00,88.4,75.6,29.81,WNW,302,7.0,8.0,66,0.00,,,0.00,Wunderground v.1.15,2013-06-27 18:15:00,
2013-06-27 13:20:00,88.5,77.0,29.81,NW,325,6.0,7.0,69,0.00,,,0.00,Wunderground v.1.15,2013-06-27 18:20:00,
2013-06-27 13:25:00,88.6,76.2,29.81,NW,307,7.0,9.0,67,0.00,,,0.00,Wunderground v.1.15,2013-06-27 18:25:00,
2013-06-27 13:30:00,88.9,76.5,29.81,WNW,301,7.0,11.0,67,0.00,,,0.00,Wunderground v.1.15,2013-06-27 18:30:00,
2013-06-27 13:36:00,89.0,76.2,29.81,NW,319,7.0,11.0,66,0.00,,,0.00,Wunderground v.1.15,2013-06-27 18:36:00,
2013-06-27 13:41:00,89.3,75.0,29.81,WNW,293,7.0,10.0,63,0.00,,,0.00,Wunderground v.1.15,2013-06-27 18:41:00,
2013-06-27 13:46:00,89.2,74.5,29.82,NW,308,8.0,10.0,62,0.00,,,0.00,Wunderground v.1.15,2013-06-27 18:46:00,
2013-06-27 13:51:00,89.1,75.3,29.81,NNW,345,9.0,9.0,64,0.00,,,0.00,Wunderground v.1.15,2013-06-27 18:51:00,
2013-06-27 13:57:00,89.4,77.4,29.81,NNW,329,8.0,9.0,68,0.00,,,0.00,Wunderground v.1.15,2013-06-27 18:57:00,
2013-06-27 14:02:00,89.6,75.8,29.81,NW,305,7.0,9.0,64,0.00,,,0.00,Wunderground v.1.15,2013-06-27 19:02:00,
2013-06-27 14:07:00,89.6,75.3,29.81,NW,322,7.0,10.0,63,0.00,,,0.00,Wunderground v.1.15,2013-06-27 19:07:00,
2013-06-27 14:12:00,89.7,74.9,29.81,NW,305,7.0,8.0,62,0.00,,,0.00,Wunderground v.1.15,2013-06-27 19:12:00,
2013-06-27 14:18:00,89.5,75.7,29.81,NNW,329,7.0,11.0,64,0.00,,,0.00,Wunderground v.1.15,2013-06-27 19:18:00,
2013-06-27 14:23:00,89.4,75.1,29.81,WNW,294,8.0,9.0,63,0.00,,,0.00,Wunderground v.1.15,2013-06-27 19:23:00,
2013-06-27 14:28:00,89.6,76.3,29.81,North,351,8.0,11.0,65,0.00,,,0.00,Wunderground v.1.15,2013-06-27 19:28:00,
2013-06-27 14:34:00,89.8,75.5,29.81,WNW,286,7.0,9.0,63,0.00,,,0.00,Wunderground v.1.15,2013-06-27 19:34:00,
2013-06-27 14:39:00,89.8,77.8,29.81,NW,320,7.0,9.0,68,0.00,,,0.00,Wunderground v.1.15,2013-06-27 19:39:00,
2013-06-27 14:44:00,89.7,76.4,29.81,NW,326,7.0,10.0,65,0.00,,,0.00,Wunderground v.1.15,2013-06-27 19:44:00,
2013-06-27 14:49:00,89.7,75.9,29.81,WNW,297,7.0,10.0,64,0.00,,,0.00,Wunderground v.1.15,2013-06-27 19:49:00,
2013-06-27 14:55:00,90.1,76.3,29.81,NW,323,7.0,7.0,64,0.00,,,0.00,Wunderground v.1.15,2013-06-27 19:55:00,
2013-06-27 15:00:00,90.2,75.9,29.81,NNW,329,7.0,9.0,63,0.00,,,0.00,Wunderground v.1.15,2013-06-27 20:00:00,
2013-06-27 15:06:00,90.3,74.0,29.81,NW,310,8.0,9.0,59,0.00,,,0.00,Wunderground v.1.15,2013-06-27 20:06:00,
2013-06-27 15:12:00,90.4,74.6,29.81,NW,316,8.0,13.0,60,0.00,,,0.00,Wunderground v.1.15,2013-06-27 20:12:00,
2013-06-27 15:17:00,90.3,73.5,29.80,NW,305,8.0,14.0,58,0.00,,,0.00,Wunderground v.1.15,2013-06-27 20:17:00,
2013-06-27 15:22:00,90.3,73.5,29.80,NW,315,8.0,8.0,58,0.00,,,0.00,Wunderground v.1.15,2013-06-27 20:22:00,
2013-06-27 15:27:00,90.6,74.8,29.80,NW,318,7.0,11.0,60,0.00,,,0.00,Wunderground v.1.15,2013-06-27 20:27:00,
2013-06-27 15:32:00,90.7,71.8,29.80,NW,307,8.0,10.0,54,0.00,,,0.00,Wunderground v.1.15,2013-06-27 20:32:00,
2013-06-27 15:38:00,90.6,73.3,29.80,NW,326,9.0,13.0,57,0.00,,,0.00,Wunderground v.1.15,2013-06-27 20:38:00,
2013-06-27 15:43:00,90.6,73.8,29.80,WNW,297,8.0,9.0,58,0.00,,,0.00,Wunderground v.1.15,2013-06-27 20:43:00,
2013-06-27 15:48:00,90.3,70.3,29.81,NW,309,8.0,14.0,52,0.00,,,0.00,Wunderground v.1.15,2013-06-27 20:48:00,
2013-06-27 15:53:00,90.4,74.1,29.81,NNW,333,8.0,11.0,59,0.00,,,0.00,Wunderground v.1.15,2013-06-27 20:53:00,
2013-06-27 15:59:00,90.4,70.9,29.81,NNW,345,8.0,11.0,53,0.00,,,0.00,Wunderground v.1.15,2013-06-27 20:59:00,
2013-06-27 16:05:00,90.8,71.9,29.80,NNE,22,7.0,11.0,54,0.00,,,0.00,Wunderground v.1.15,2013-06-27 21:05:00,
2013-06-27 16:10:00,90.8,73.5,29.80,NNW,331,6.0,6.0,57,0.00,,,0.00,Wunderground v.1.15,2013-06-27 21:10:00,
2013-06-27 16:15:00,90.5,73.7,29.80,ENE,69,6.0,6.0,58,0.00,,,0.00,Wunderground v.1.15,2013-06-27 21:15:00,
2013-06-27 16:20:00,90.1,73.3,29.80,WNW,294,6.0,6.0,58,0.00,,,0.00,Wunderground v.1.15,2013-06-27 21:20:00,
2013-06-27 16:25:00,89.8,74.6,29.80,NW,318,6.0,9.0,61,0.00,,,0.00,Wunderground v.1.15,2013-06-27 21:25:00,
2013-06-27 16:31:00,90.0,74.7,29.79,WNW,297,4.0,6.0,61,0.00,,,0.00,Wunderground v.1.15,2013-06-27 21:31:00,
2013-06-27 16:36:00,90.3,74.0,29.79,NW,310,4.0,8.0,59,0.00,,,0.00,Wunderground v.1.15,2013-06-27 21:36:00,
2013-06-27 16:42:00,89.9,72.1,29.79,NW,326,6.0,7.0,56,0.00,,,0.00,Wunderground v.1.15,2013-06-27 21:42:00,
2013-06-27 16:48:00,89.5,73.8,29.79,NW,309,8.0,11.0,60,0.00,,,0.00,Wunderground v.1.15,2013-06-27 21:48:00,
2013-06-27 16:53:00,89.1,73.9,29.79,NW,306,6.0,7.0,61,0.00,,,0.00,Wunderground v.1.15,2013-06-27 21:53:00,
2013-06-27 16:58:00,88.7,74.5,29.79,WNW,289,5.0,7.0,63,0.00,,,0.00,Wunderground v.1.15,2013-06-27 21:58:00,
2013-06-27 17:03:00,88.5,72.8,29.79,NW,306,5.0,9.0,60,0.00,,,0.00,Wunderground v.1.15,2013-06-27 22:03:00,
2013-06-27 17:08:00,88.4,73.7,29.79,NW,314,5.0,9.0,62,0.00,,,0.00,Wunderground v.1.15,2013-06-27 22:08:00,
2013-06-27 17:14:00,88.1,73.0,29.78,NW,306,5.0,5.0,61,0.00,,,0.00,Wunderground v.1.15,2013-06-27 22:14:00,
2013-06-27 17:19:00,87.6,73.9,29.78,WNW,294,4.0,5.0,64,0.00,,,0.00,Wunderground v.1.15,2013-06-27 22:19:00,
2013-06-27 17:25:00,87.4,74.2,29.78,WNW,298,3.0,5.0,65,0.00,,,0.00,Wunderground v.1.15,2013-06-27 22:25:00,
2013-06-27 17:30:00,88.1,75.3,29.78,NW,305,3.0,3.0,66,0.00,,,0.00,Wunderground v.1.15,2013-06-27 22:30:00,
2013-06-27 17:35:00,89.0,74.8,29.78,NW,307,3.0,4.0,63,0.00,,,0.00,Wunderground v.1.15,2013-06-27 22:35:00,
2013-06-27 17:41:00,89.6,73.4,29.78,West,278,4.0,6.0,59,0.00,,,0.00,Wunderground v.1.15,2013-06-27 22:41:00,
2013-06-27 17:46:00,89.8,75.5,29.77,WNW,302,4.0,6.0,63,0.00,,,0.00,Wunderground v.1.15,2013-06-27 22:46:00,
2013-06-27 17:51:00,89.8,74.1,29.78,NW,310,5.0,6.0,60,0.00,,,0.00,Wunderground v.1.15,2013-06-27 22:51:00,
2013-06-27 17:56:00,89.7,74.0,29.78,WNW,297,5.0,8.0,60,0.00,,,0.00,Wunderground v.1.15,2013-06-27 22:56:00,
2013-06-27 18:01:00,89.4,72.7,29.78,WNW,300,6.0,7.0,58,0.00,,,0.00,Wunderground v.1.15,2013-06-27 23:01:00,
2013-06-27 18:07:00,89.1,74.4,29.78,NW,307,5.0,7.0,62,0.00,,,0.00,Wunderground v.1.15,2013-06-27 23:07:00,
2013-06-27 18:12:00,88.8,73.6,29.78,WNW,300,5.0,5.0,61,0.00,,,0.00,Wunderground v.1.15,2013-06-27 23:12:00,
2013-06-27 18:17:00,88.4,73.2,29.77,WNW,296,5.0,5.0,61,0.00,,,0.00,Wunderground v.1.15,2013-06-27 23:17:00,
2013-06-27 18:23:00,87.9,72.8,29.77,WNW,288,5.0,5.0,61,0.00,,,0.00,Wunderground v.1.15,2013-06-27 23:23:00,
2013-06-27 18:28:00,87.6,73.0,29.77,NW,304,5.0,6.0,62,0.00,,,0.00,Wunderground v.1.15,2013-06-27 23:28:00,
2013-06-27 18:34:00,87.7,73.5,29.77,WNW,299,4.0,6.0,63,0.00,,,0.00,Wunderground v.1.15,2013-06-27 23:34:00,
2013-06-27 18:39:00,87.8,73.6,29.77,NW,311,4.0,6.0,63,0.00,,,0.00,Wunderground v.1.15,2013-06-27 23:39:00,
2013-06-27 18:44:00,87.9,74.2,29.76,WNW,294,4.0,4.0,64,0.00,,,0.00,Wunderground v.1.15,2013-06-27 23:44:00,
2013-06-27 18:50:00,87.9,74.7,29.77,NW,307,3.0,3.0,65,0.00,,,0.00,Wunderground v.1.15,2013-06-27 23:50:00,
2013-06-27 18:55:00,87.9,74.2,29.76,WNW,300,2.0,3.0,64,0.00,,,0.00,Wunderground v.1.15,2013-06-27 23:55:00,
2013-06-27 19:00:00,88.2,74.5,29.76,NW,305,1.0,1.0,64,0.00,,,0.00,Wunderground v.1.15,2013-06-28 00:00:00,
2013-06-27 19:06:00,88.6,76.2,29.75,WNW,283,1.0,2.0,67,0.00,,,0.00,Wunderground v.1.15,2013-06-28 00:06:00,
2013-06-27 19:12:00,88.8,75.0,29.75,West,273,1.0,3.0,64,0.00,,,0.00,Wunderground v.1.15,2013-06-28 00:12:00,
2013-06-27 19:17:00,88.6,74.4,29.74,WNW,284,1.0,3.0,63,0.00,,,0.00,Wunderground v.1.15,2013-06-28 00:17:00,
2013-06-27 19:22:00,88.5,76.1,29.74,WSW,243,0.0,1.0,67,0.00,,,0.00,Wunderground v.1.15,2013-06-28 00:22:00,
2013-06-27 19:27:00,88.8,75.5,29.74,WSW,243,0.0,1.0,65,0.00,,,0.00,Wunderground v.1.15,2013-06-28 00:27:00,
2013-06-27 19:34:00,88.9,75.6,29.74,WNW,285,0.0,3.0,65,0.00,,,0.00,Wunderground v.1.15,2013-06-28 00:34:00,
2013-06-27 19:40:00,87.4,73.3,29.74,WNW,290,2.0,2.0,63,0.00,,,0.00,Wunderground v.1.15,2013-06-28 00:40:00,
2013-06-27 19:45:00,86.5,72.9,29.73,WNW,287,2.0,2.0,64,0.00,,,0.00,Wunderground v.1.15,2013-06-28 00:45:00,
2013-06-27 19:50:00,86.1,73.0,29.73,WNW,293,1.0,1.0,65,0.00,,,0.00,Wunderground v.1.15,2013-06-28 00:50:00,
2013-06-27 19:56:00,85.7,73.5,29.73,West,280,0.0,1.0,67,0.00,,,0.00,Wunderground v.1.15,2013-06-28 00:56:00,
2013-06-27 20:02:00,85.3,74.0,29.73,West,269,0.0,0.0,69,0.00,,,0.00,Wunderground v.1.15,2013-06-28 01:02:00,
2013-06-27 20:07:00,84.4,73.5,29.73,SE,140,0.0,0.0,70,0.00,,,0.00,Wunderground v.1.15,2013-06-28 01:07:00,
2013-06-27 20:13:00,82.9,72.9,29.73,SE,139,0.0,0.0,72,0.00,,,0.00,Wunderground v.1.15,2013-06-28 01:13:00,
2013-06-27 20:18:00,82.0,72.5,29.73,SE,140,0.0,0.0,73,0.00,,,0.00,Wunderground v.1.15,2013-06-28 01:18:00,
2013-06-27 20:23:00,81.1,71.2,29.73,SE,139,0.0,0.0,72,0.00,,,0.00,Wunderground v.1.15,2013-06-28 01:23:00,
2013-06-27 20:29:00,80.2,71.2,29.73,SE,139,0.0,0.0,74,0.00,,,0.00,Wunderground v.1.15,2013-06-28 01:29:00,
2013-06-27 20:35:00,79.4,71.6,29.74,SE,139,0.0,0.0,77,0.00,,,0.00,Wunderground v.1.15,2013-06-28 01:35:00,
2013-06-27 20:40:00,79.0,71.6,29.74,SE,141,0.0,0.0,78,0.00,,,0.00,Wunderground v.1.15,2013-06-28 01:40:00,
2013-06-27 20:45:00,78.6,71.9,29.74,SE,141,0.0,0.0,80,0.00,,,0.00,Wunderground v.1.15,2013-06-28 01:45:00,
2013-06-27 20:50:00,78.2,72.3,29.74,SE,141,0.0,0.0,82,0.00,,,0.00,Wunderground v.1.15,2013-06-28 01:50:00,
2013-06-27 20:56:00,77.6,71.3,29.74,SE,141,0.0,0.0,81,0.00,,,0.00,Wunderground v.1.15,2013-06-28 01:56:00,
2013-06-27 21:01:00,77.2,71.3,29.75,SE,141,0.0,0.0,82,0.00,,,0.00,Wunderground v.1.15,2013-06-28 02:01:00,
2013-06-27 21:07:00,77.0,71.4,29.75,SE,141,0.0,0.0,83,0.00,,,0.00,Wunderground v.1.15,2013-06-28 02:07:00,
2013-06-27 21:12:00,76.8,71.9,29.75,SE,141,0.0,0.0,85,0.00,,,0.00,Wunderground v.1.15,2013-06-28 02:12:00,
2013-06-27 21:17:00,76.6,72.1,29.75,SE,141,0.0,0.0,86,0.00,,,0.00,Wunderground v.1.15,2013-06-28 02:17:00,
2013-06-27 21:23:00,76.3,71.8,29.74,SE,141,0.0,0.0,86,0.00,,,0.00,Wunderground v.1.15,2013-06-28 02:23:00,
2013-06-27 21:28:00,76.1,71.6,29.75,SE,141,0.0,0.0,86,0.00,,,0.00,Wunderground v.1.15,2013-06-28 02:28:00,
2013-06-27 21:34:00,76.0,71.8,29.75,SE,141,0.0,0.0,87,0.00,,,0.00,Wunderground v.1.15,2013-06-28 02:34:00,
2013-06-27 21:39:00,76.1,73.0,29.75,SE,141,0.0,0.0,90,0.00,,,0.00,Wunderground v.1.15,2013-06-28 02:39:00,
2013-06-27 21:45:00,75.9,73.1,29.76,SE,141,0.0,0.0,91,0.00,,,0.00,Wunderground v.1.15,2013-06-28 02:45:00,
2013-06-27 21:50:00,75.7,73.2,29.75,SE,141,0.0,0.0,92,0.00,,,0.00,Wunderground v.1.15,2013-06-28 02:50:00,
2013-06-27 21:56:00,75.5,73.0,29.76,SE,141,0.0,0.0,92,0.00,,,0.00,Wunderground v.1.15,2013-06-28 02:56:00,
2013-06-27 22:02:00,75.5,73.0,29.76,SW,228,0.0,0.0,92,0.00,,,0.00,Wunderground v.1.15,2013-06-28 03:02:00,
2013-06-27 22:08:00,75.8,73.0,29.76,West,276,0.0,2.0,91,0.00,,,0.00,Wunderground v.1.15,2013-06-28 03:08:00,
2013-06-27 22:13:00,76.4,73.2,29.76,West,262,1.0,3.0,90,0.00,,,0.00,Wunderground v.1.15,2013-06-28 03:13:00,
2013-06-27 22:18:00,77.2,73.4,29.76,West,278,2.0,3.0,88,0.00,,,0.00,Wunderground v.1.15,2013-06-28 03:18:00,
2013-06-27 22:24:00,77.7,73.5,29.77,WSW,246,2.0,3.0,87,0.00,,,0.00,Wunderground v.1.15,2013-06-28 03:24:00,
2013-06-27 22:29:00,77.6,73.1,29.77,West,271,2.0,3.0,86,0.00,,,0.00,Wunderground v.1.15,2013-06-28 03:29:00,
2013-06-27 22:34:00,77.8,73.3,29.77,West,281,3.0,4.0,86,0.00,,,0.00,Wunderground v.1.15,2013-06-28 03:34:00,
2013-06-27 22:39:00,77.4,72.9,29.77,West,281,2.0,4.0,86,0.00,,,0.00,Wunderground v.1.15,2013-06-28 03:39:00,
2013-06-27 22:45:00,77.1,72.9,29.77,West,276,1.0,3.0,87,0.00,,,0.00,Wunderground v.1.15,2013-06-28 03:45:00,
2013-06-27 22:51:00,77.5,72.6,29.77,West,273,3.0,3.0,85,0.00,,,0.00,Wunderground v.1.15,2013-06-28 03:51:00,
2013-06-27 22:56:00,77.4,72.5,29.77,WNW,284,3.0,3.0,85,0.00,,,0.00,Wunderground v.1.15,2013-06-28 03:56:00,
2013-06-27 23:01:00,77.4,72.5,29.77,West,281,2.0,4.0,85,0.00,,,0.00,Wunderground v.1.15,2013-06-28 04:01:00,
2013-06-27 23:02:00,77.4,72.5,29.77,WNW,293,2.0,4.0,85,0.00,,,0.00,Wunderground v.1.15,2013-06-28 04:02:00,
2013-06-27 23:04:00,77.4,72.5,29.77,West,260,2.0,4.0,85,0.00,,,0.00,Wunderground v.1.15,2013-06-28 04:04:00,
2013-06-27 23:05:00,77.4,72.5,29.77,WNW,285,2.0,4.0,85,0.00,,,0.00,Wunderground v.1.15,2013-06-28 04:05:00,
2013-06-27 23:06:00,77.4,72.5,29.77,West,278,2.0,4.0,85,0.00,,,0.00,Wunderground v.1.15,2013-06-28 04:06:00,
2013-06-27 23:11:00,77.1,72.6,29.77,WNW,283,1.0,2.0,86,0.00,,,0.00,Wunderground v.1.15,2013-06-28 04:11:00,
2013-06-27 23:16:00,76.9,72.4,29.77,WNW,283,1.0,3.0,86,0.00,,,0.00,Wunderground v.1.15,2013-06-28 04:16:00,
2013-06-27 23:21:00,77.0,72.5,29.77,WNW,282,2.0,2.0,86,0.00,,,0.00,Wunderground v.1.15,2013-06-28 04:21:00,
2013-06-27 23:27:00,76.8,72.6,29.78,WNW,291,3.0,5.0,87,0.00,,,0.00,Wunderground v.1.15,2013-06-28 04:27:00,
2013-06-27 23:32:00,76.8,72.6,29.78,WNW,282,3.0,3.0,87,0.00,,,0.00,Wunderground v.1.15,2013-06-28 04:32:00,
2013-06-27 23:37:00,76.8,72.6,29.78,WNW,290,3.0,3.0,87,0.00,,,0.00,Wunderground v.1.15,2013-06-28 04:37:00,
2013-06-27 23:43:00,76.7,72.5,29.78,WNW,283,2.0,3.0,87,0.00,,,0.00,Wunderground v.1.15,2013-06-28 04:43:00,
2013-06-27 23:48:00,76.8,72.3,29.78,WNW,297,2.0,3.0,86,0.00,,,0.00,Wunderground v.1.15,2013-06-28 04:48:00,
2013-06-27 23:53:00,76.7,72.5,29.78,WNW,289,2.0,2.0,87,0.00,,,0.00,Wunderground v.1.15,2013-06-28 04:53:00,
2013-06-27 23:58:00,76.7,72.2,29.78,WNW,285,2.0,4.0,86,0.00,,,0.00,Wunderground v.1.15,2013-06-28 04:58:00,